Time;durP1;ratioP1;P1;durP2;ratioP2;P2;SDS_P1;SDS_P2;PMS_P1;PMS_P2;Temp;Humidity;BMP_temperature;BMP_pressure;BME280_temperature;BME280_humidity;BME280_pressure;Samples;Min_cycle;Max_cycle;Signal;HPM_P1;HPM_P2
2024/01/08 00:02:21;;;;;;;;;;;;;;;-1.22;54.02;98393.41;5106042;28;19960;-57
2024/01/08 00:05:09;;;;;;;;;;;;;;;-1.09;53.11;98391.38;5103308;28;19927;-56
2024/01/08 00:07:59;;;;;;;;;;;;;;;-1.02;53.22;98388.63;5103844;28;19920;-56
2024/01/08 00:10:47;;;;;;;;;;;;;;;-1.06;53.43;98392.78;5102935;28;20277;-56
2024/01/08 00:13:36;;;;;;;;;;;;;;;-1.00;53.76;98391.88;5091942;28;19920;-55
2024/01/08 00:16:24;;;;;;;;;;;;;;;-0.98;53.46;98392.47;5104130;28;20276;-55
2024/01/08 00:19:12;;;;;;;;;;;;;;;-0.99;53.54;98398.03;5106958;28;20296;-56
2024/01/08 00:22:00;;;;;;;;;;;;;;;-0.99;53.29;98388.19;5107148;27;19919;-55
2024/01/08 00:24:50;;;;;;;;;;;;;;;-1.24;53.76;98398.94;5104719;28;20075;-56
2024/01/08 00:27:39;;;;;;;;;;;;;;;-0.95;53.68;98397.38;5102211;28;20342;-58
2024/01/08 00:30:27;;;;;;;;;;;;;;;-0.87;53.28;98397.03;5101110;28;19924;-56
2024/01/08 00:33:15;;;;;;;;;;;;;;;-0.90;53.17;98399.38;5102694;28;20272;-56
2024/01/08 00:36:04;;;;;;;;;;;;;;;-0.96;53.15;98400.25;5100418;28;19964;-54
2024/01/08 00:38:53;;;;;;;;;;;;;;;-1.10;53.54;98386.28;5106393;28;20278;-55
2024/01/08 00:41:43;;;;;;;;;;;;;;;-1.15;53.91;98389.59;5105948;28;19920;-57
2024/01/08 00:44:31;;;;;;;;;;;;;;;-1.07;53.91;98389.28;5103565;28;20028;-57
2024/01/08 00:47:19;;;;;;;;;;;;;;;-1.10;54.16;98391.59;5103276;28;20418;-54
2024/01/08 00:50:09;;;;;;;;;;;;;;;-0.99;53.81;98390.03;5105466;28;19927;-55
2024/01/08 00:52:57;;;;;;;;;;;;;;;-0.88;54.72;98390.09;5103337;28;19927;-59
2024/01/08 00:55:46;;;;;;;;;;;;;;;-0.85;53.89;98383.50;5098284;28;19939;-56
2024/01/08 00:58:36;;;;;;;;;;;;;;;-0.85;53.67;98388.84;5100058;28;20372;-55
2024/01/08 01:01:25;;;;;;;;;;;;;;;-0.90;53.57;98394.84;5099465;28;20391;-61
2024/01/08 01:04:14;;;;;;;;;;;;;;;-1.00;53.81;98401.75;5099455;28;20285;-56
2024/01/08 01:07:02;;;;;;;;;;;;;;;-0.82;54.10;98399.84;5101772;28;19998;-56
2024/01/08 01:09:50;;;;;;;;;;;;;;;-0.98;54.63;98405.00;5100837;28;19927;-55
2024/01/08 01:12:38;;;;;;;;;;;;;;;-1.12;55.48;98402.50;5101150;28;20008;-55
2024/01/08 01:15:27;;;;;;;;;;;;;;;-1.10;55.70;98407.59;5095880;28;20084;-58
2024/01/08 01:18:16;;;;;;;;;;;;;;;-1.01;56.31;98406.28;5105737;28;19919;-56
2024/01/08 01:21:04;;;;;;;;;;;;;;;-1.22;57.24;98412.88;5093579;28;19947;-55
2024/01/08 01:23:52;;;;;;;;;;;;;;;-1.03;56.88;98407.53;5105635;28;19919;-57
2024/01/08 01:26:40;;;;;;;;;;;;;;;-1.09;56.94;98415.38;5101175;27;19935;-58
2024/01/08 01:29:28;;;;;;;;;;;;;;;-1.20;57.17;98418.78;5102610;28;19920;-55
2024/01/08 01:32:18;;;;;;;;;;;;;;;-1.20;56.75;98421.47;5112041;27;19934;-57
2024/01/08 01:35:07;;;;;;;;;;;;;;;-1.28;57.08;98421.75;5107166;28;19924;-55
2024/01/08 01:37:58;;;;;;;;;;;;;;;-1.24;57.16;98417.59;5106746;28;19939;-57
2024/01/08 01:40:46;;;;;;;;;;;;;;;-1.47;57.28;98426.28;5100749;28;19934;-54
2024/01/08 01:43:34;;;;;;;;;;;;;;;-1.49;58.06;98431.00;5097741;28;19927;-55
2024/01/08 01:46:24;;;;;;;;;;;;;;;-1.44;57.43;98417.00;5106551;28;19973;-55
2024/01/08 01:49:14;;;;;;;;;;;;;;;-1.35;57.30;98419.16;5104681;28;19927;-55
2024/01/08 01:52:02;;;;;;;;;;;;;;;-1.59;57.88;98412.06;5103033;28;19920;-55
2024/01/08 01:54:50;;;;;;;;;;;;;;;-1.42;57.18;98418.44;5100361;28;19936;-59
2024/01/08 01:57:40;;;;;;;;;;;;;;;-1.37;56.78;98417.75;5092978;28;24344;-54
2024/01/08 02:00:28;;;;;;;;;;;;;;;-1.33;55.76;98409.09;5103735;28;19932;-54
2024/01/08 02:03:19;;;;;;;;;;;;;;;-1.44;55.91;98411.66;5097376;28;19920;-56
2024/01/08 02:06:11;;;;;;;;;;;;;;;-1.30;55.24;98409.69;5099311;28;20401;-57
2024/01/08 02:08:59;;;;;;;;;;;;;;;-1.23;55.20;98408.56;5100524;28;19926;-55
2024/01/08 02:11:47;;;;;;;;;;;;;;;-1.27;54.82;98409.25;5101022;28;19924;-56
2024/01/08 02:14:36;;;;;;;;;;;;;;;-1.64;55.01;98412.72;5104920;28;19920;-61
2024/01/08 02:17:23;;;;;;;;;;;;;;;-1.54;54.76;98406.06;5105277;28;20014;-55
2024/01/08 02:20:12;;;;;;;;;;;;;;;-1.55;54.83;98399.09;5105485;28;19947;-55
2024/01/08 02:23:01;;;;;;;;;;;;;;;-1.50;54.94;98413.38;5106975;28;19970;-56
2024/01/08 02:25:49;;;;;;;;;;;;;;;-1.52;54.84;98411.97;5095749;28;19926;-55
2024/01/08 02:28:37;;;;;;;;;;;;;;;-1.51;54.54;98417.06;5103764;28;19931;-55
2024/01/08 02:31:25;;;;;;;;;;;;;;;-1.49;54.19;98420.34;5098576;28;20273;-57
2024/01/08 02:34:13;;;;;;;;;;;;;;;-1.49;54.29;98424.84;5098901;28;20285;-55
2024/01/08 02:37:01;;;;;;;;;;;;;;;-1.60;54.17;98413.06;5104393;28;19964;-56
2024/01/08 02:39:51;;;;;;;;;;;;;;;-1.65;54.11;98410.25;5106561;28;19920;-56
2024/01/08 02:42:40;;;;;;;;;;;;;;;-1.72;54.86;98415.66;5096715;28;19931;-56
2024/01/08 02:45:28;;;;;;;;;;;;;;;-1.62;53.81;98410.63;5096144;28;19920;-55
2024/01/08 02:48:16;;;;;;;;;;;;;;;-1.62;54.05;98412.47;5100342;27;20012;-55
2024/01/08 02:51:04;;;;;;;;;;;;;;;-1.62;54.10;98420.47;5108525;27;19961;-55
2024/01/08 02:53:52;;;;;;;;;;;;;;;-1.85;52.99;98432.56;5108941;27;19979;-55
2024/01/08 02:56:41;;;;;;;;;;;;;;;-1.92;52.58;98426.50;5105819;28;19958;-54
2024/01/08 02:59:29;;;;;;;;;;;;;;;-1.68;52.64;98438.16;5086152;28;20005;-56
2024/01/08 03:05:30;;;;;;;;;;;;;;;-1.89;53.66;98441.22;5077291;28;19920;-55
2024/01/08 03:08:18;;;;;;;;;;;;;;;-1.69;53.42;98435.72;5086964;28;20021;-54
2024/01/08 03:11:06;;;;;;;;;;;;;;;-1.70;52.94;98432.25;5071999;28;19927;-56
2024/01/08 03:13:56;;;;;;;;;;;;;;;-1.67;52.26;98436.31;5084059;28;19999;-54
2024/01/08 03:16:45;;;;;;;;;;;;;;;-1.78;52.46;98431.69;5085490;28;20011;-57
2024/01/08 03:19:32;;;;;;;;;;;;;;;-1.89;52.07;98433.22;5087344;28;19920;-55
2024/01/08 03:22:21;;;;;;;;;;;;;;;-1.66;52.40;98438.75;5088472;28;19932;-56
2024/01/08 03:25:09;;;;;;;;;;;;;;;-1.91;52.38;98445.97;5083611;28;19924;-56
2024/01/08 03:27:59;;;;;;;;;;;;;;;-1.70;51.88;98445.56;5088382;28;20369;-55
2024/01/08 03:30:51;;;;;;;;;;;;;;;-1.88;52.13;98441.00;5087114;28;20462;-54
2024/01/08 03:33:40;;;;;;;;;;;;;;;-1.90;52.59;98444.91;5090211;28;20073;-61
2024/01/08 03:36:28;;;;;;;;;;;;;;;-1.64;52.16;98442.00;5083067;28;19963;-55
2024/01/08 03:39:17;;;;;;;;;;;;;;;-1.55;52.26;98444.38;5089031;28;19943;-55
2024/01/08 03:42:05;;;;;;;;;;;;;;;-1.54;52.02;98443.38;5080208;28;19932;-55
2024/01/08 03:44:53;;;;;;;;;;;;;;;-1.52;51.91;98434.09;5087404;28;19973;-56
2024/01/08 03:47:45;;;;;;;;;;;;;;;-1.54;51.60;98446.03;5098215;28;19942;-60
2024/01/08 03:50:35;;;;;;;;;;;;;;;-1.55;51.26;98447.03;5088627;28;19931;-60
2024/01/08 03:53:23;;;;;;;;;;;;;;;-1.51;51.45;98446.38;5081084;28;20406;-54
2024/01/08 03:56:11;;;;;;;;;;;;;;;-1.44;50.75;98451.66;5085434;28;20015;-56
2024/01/08 03:58:59;;;;;;;;;;;;;;;-1.56;50.99;98458.75;5078759;28;19943;-56
2024/01/08 04:01:50;;;;;;;;;;;;;;;-1.59;50.91;98447.50;5085061;28;19958;-55
2024/01/08 04:04:40;;;;;;;;;;;;;;;-1.50;50.93;98452.53;5085609;28;19923;-54
2024/01/08 04:07:28;;;;;;;;;;;;;;;-1.41;50.73;98460.03;5086566;28;19920;-57
2024/01/08 04:10:16;;;;;;;;;;;;;;;-1.51;51.16;98462.38;5088047;28;19927;-55
2024/01/08 04:13:04;;;;;;;;;;;;;;;-1.42;50.64;98465.59;5081719;28;19927;-60
2024/01/08 04:15:53;;;;;;;;;;;;;;;-1.40;51.11;98466.16;5081412;28;19920;-55
2024/01/08 04:18:41;;;;;;;;;;;;;;;-1.46;50.52;98467.06;5087672;28;19962;-55
2024/01/08 04:21:30;;;;;;;;;;;;;;;-1.50;50.84;98460.53;5083009;28;20383;-54
2024/01/08 04:24:18;;;;;;;;;;;;;;;-1.48;51.42;98461.13;5083100;28;19931;-55
2024/01/08 04:27:06;;;;;;;;;;;;;;;-1.65;51.63;98464.38;5082897;28;19924;-57
2024/01/08 04:29:54;;;;;;;;;;;;;;;-1.53;51.50;98467.13;5082900;28;19935;-55
2024/01/08 04:32:42;;;;;;;;;;;;;;;-1.49;51.39;98472.81;5085409;28;19920;-55
2024/01/08 04:35:30;;;;;;;;;;;;;;;-1.52;51.97;98473.25;5076823;28;19931;-55
2024/01/08 04:38:20;;;;;;;;;;;;;;;-1.35;51.42;98469.00;5079172;28;19927;-58
2024/01/08 04:41:08;;;;;;;;;;;;;;;-1.36;51.08;98473.50;5081344;28;19932;-57
2024/01/08 04:43:56;;;;;;;;;;;;;;;-1.41;51.10;98473.34;5088583;28;19920;-55
2024/01/08 04:46:45;;;;;;;;;;;;;;;-1.54;52.08;98465.50;5088914;28;19963;-55
2024/01/08 04:49:33;;;;;;;;;;;;;;;-1.36;51.40;98478.03;5090969;28;19920;-54
2024/01/08 04:52:21;;;;;;;;;;;;;;;-1.43;51.92;98474.63;5074167;28;19928;-55
2024/01/08 04:55:10;;;;;;;;;;;;;;;-1.33;51.26;98477.59;5087602;28;19920;-55
2024/01/08 04:57:58;;;;;;;;;;;;;;;-1.58;51.47;98474.97;5086891;28;19921;-54
2024/01/08 05:00:47;;;;;;;;;;;;;;;-1.64;52.12;98479.31;5090944;28;20021;-54
2024/01/08 05:03:35;;;;;;;;;;;;;;;-1.58;52.07;98481.09;5088883;28;19927;-58
2024/01/08 05:06:23;;;;;;;;;;;;;;;-1.62;52.26;98490.56;5086668;28;20434;-54
2024/01/08 05:09:11;;;;;;;;;;;;;;;-1.53;52.13;98482.31;5086436;28;19931;-55
2024/01/08 05:12:00;;;;;;;;;;;;;;;-1.42;51.39;98489.56;5087139;28;20506;-61
2024/01/08 05:14:48;;;;;;;;;;;;;;;-1.79;51.52;98489.47;5087140;28;20361;-55
2024/01/08 05:17:36;;;;;;;;;;;;;;;-1.67;50.89;98489.59;5085962;28;19920;-58
2024/01/08 05:20:24;;;;;;;;;;;;;;;-1.47;50.25;98492.06;5072158;28;20011;-57
2024/01/08 05:23:13;;;;;;;;;;;;;;;-1.58;51.08;98497.09;5077494;28;20373;-55
2024/01/08 05:26:01;;;;;;;;;;;;;;;-1.59;50.67;98505.31;5084920;28;20464;-55
2024/01/08 05:28:52;;;;;;;;;;;;;;;-1.34;50.34;98502.59;5083906;28;20006;-55
2024/01/08 05:31:41;;;;;;;;;;;;;;;-1.49;50.13;98507.44;5084800;28;19920;-55
2024/01/08 05:34:29;;;;;;;;;;;;;;;-1.44;50.58;98496.94;5075967;28;19924;-57
2024/01/08 05:37:18;;;;;;;;;;;;;;;-1.23;50.14;98504.53;5082637;28;19927;-55
2024/01/08 05:40:07;;;;;;;;;;;;;;;-1.40;50.53;98503.47;5078738;28;19946;-55
2024/01/08 05:42:55;;;;;;;;;;;;;;;-1.40;50.21;98503.47;5087085;28;19920;-59
2024/01/08 05:45:45;;;;;;;;;;;;;;;-1.47;50.07;98518.72;5104906;27;19970;-57
2024/01/08 05:48:37;;;;;;;;;;;;;;;-1.58;50.23;98512.25;5104963;27;20018;-56
2024/01/08 05:51:27;;;;;;;;;;;;;;;-1.44;50.26;98510.28;5101624;27;19920;-60
2024/01/08 05:54:16;;;;;;;;;;;;;;;-1.48;50.22;98520.56;5105438;27;19920;-55
2024/01/08 05:57:04;;;;;;;;;;;;;;;-1.77;50.82;98506.06;5092681;28;19920;-55
2024/01/08 05:59:52;;;;;;;;;;;;;;;-1.59;50.55;98516.78;5100838;28;20841;-55
2024/01/08 06:02:41;;;;;;;;;;;;;;;-1.73;50.21;98520.56;5105631;28;19963;-55
2024/01/08 06:05:29;;;;;;;;;;;;;;;-1.73;50.19;98514.44;5113432;28;19924;-61
2024/01/08 06:08:19;;;;;;;;;;;;;;;-1.79;50.86;98521.44;5115660;28;19920;-57
2024/01/08 06:11:07;;;;;;;;;;;;;;;-1.65;50.17;98519.47;5106464;28;20053;-54
2024/01/08 06:13:55;;;;;;;;;;;;;;;-1.56;49.98;98523.50;5108283;28;19920;-56
2024/01/08 06:16:44;;;;;;;;;;;;;;;-1.71;50.38;98523.81;5105031;28;19931;-55
2024/01/08 06:19:34;;;;;;;;;;;;;;;-2.21;50.87;98523.78;5097548;28;19966;-55
2024/01/08 06:22:21;;;;;;;;;;;;;;;-1.71;50.82;98521.16;5103357;28;20011;-56
2024/01/08 06:25:10;;;;;;;;;;;;;;;-1.68;50.69;98520.75;5111546;27;20427;-55
2024/01/08 06:27:58;;;;;;;;;;;;;;;-1.66;50.88;98524.00;5114520;27;19980;-55
2024/01/08 06:30:46;;;;;;;;;;;;;;;-1.46;50.21;98518.50;5103929;27;19924;-56
2024/01/08 06:33:34;;;;;;;;;;;;;;;-1.44;50.64;98523.59;5103809;27;21910;-56
2024/01/08 06:36:23;;;;;;;;;;;;;;;-1.41;50.31;98518.66;5104605;27;19946;-55
2024/01/08 06:39:12;;;;;;;;;;;;;;;-1.35;49.95;98516.97;5102791;28;19947;-55
2024/01/08 06:42:00;;;;;;;;;;;;;;;-1.36;49.97;98520.66;5103747;27;19924;-57
2024/01/08 06:44:49;;;;;;;;;;;;;;;-1.20;50.08;98517.44;5107066;27;19920;-55
2024/01/08 06:47:37;;;;;;;;;;;;;;;-1.41;49.68;98523.19;5104495;27;19994;-55
2024/01/08 06:50:25;;;;;;;;;;;;;;;-1.42;50.54;98518.88;5107771;27;19920;-57
2024/01/08 06:53:15;;;;;;;;;;;;;;;-1.33;50.20;98520.25;5102826;28;19920;-56
2024/01/08 06:56:04;;;;;;;;;;;;;;;-1.35;50.35;98528.44;5103014;27;20300;-56
2024/01/08 06:58:51;;;;;;;;;;;;;;;-1.16;50.28;98517.81;5109041;28;20352;-56
2024/01/08 07:01:40;;;;;;;;;;;;;;;-1.21;49.80;98521.16;5102403;27;20004;-55
2024/01/08 07:04:28;;;;;;;;;;;;;;;-1.35;50.61;98523.09;5106899;27;19920;-55
2024/01/08 07:07:16;;;;;;;;;;;;;;;-1.27;50.37;98530.03;5107565;28;19920;-56
2024/01/08 07:10:06;;;;;;;;;;;;;;;-1.28;50.42;98533.69;5102291;27;19927;-56
2024/01/08 07:12:54;;;;;;;;;;;;;;;-1.71;51.38;98534.47;5105788;27;20008;-59
2024/01/08 07:15:43;;;;;;;;;;;;;;;-1.37;51.37;98527.03;5084343;28;19931;-56
2024/01/08 07:18:31;;;;;;;;;;;;;;;-1.29;50.87;98526.75;5097004;27;20001;-57
2024/01/08 07:21:20;;;;;;;;;;;;;;;-1.30;51.02;98525.13;5110864;28;20007;-55
2024/01/08 07:24:08;;;;;;;;;;;;;;;-1.07;50.78;98533.28;5105409;27;19969;-56
2024/01/08 07:26:57;;;;;;;;;;;;;;;-1.13;50.90;98528.84;5104109;28;19932;-56
2024/01/08 07:29:46;;;;;;;;;;;;;;;-1.15;51.42;98538.91;5097450;28;20368;-55
2024/01/08 07:32:34;;;;;;;;;;;;;;;-1.64;52.04;98534.44;5099104;27;19984;-55
2024/01/08 07:35:25;;;;;;;;;;;;;;;-1.25;51.81;98540.47;5103812;28;19927;-56
2024/01/08 07:38:13;;;;;;;;;;;;;;;-1.34;51.69;98539.91;5100567;27;19954;-55
2024/01/08 07:41:01;;;;;;;;;;;;;;;-1.27;51.59;98538.03;5103174;28;19927;-58
2024/01/08 07:43:52;;;;;;;;;;;;;;;-1.34;52.19;98540.72;5092701;28;19975;-56
2024/01/08 07:46:42;;;;;;;;;;;;;;;-1.43;52.58;98550.06;5097744;27;19932;-56
2024/01/08 07:49:30;;;;;;;;;;;;;;;-1.47;52.50;98543.53;5100953;28;20372;-55
2024/01/08 07:52:18;;;;;;;;;;;;;;;-1.52;53.08;98537.22;5103426;27;20391;-55
2024/01/08 07:55:09;;;;;;;;;;;;;;;-1.50;52.78;98545.78;5099404;27;19923;-56
2024/01/08 07:57:57;;;;;;;;;;;;;;;-1.45;52.92;98551.28;5104393;28;20630;-59
2024/01/08 08:00:47;;;;;;;;;;;;;;;-1.30;52.77;98551.78;5103395;27;19989;-55
2024/01/08 08:03:35;;;;;;;;;;;;;;;-1.22;52.76;98559.50;5098640;27;19924;-56
2024/01/08 08:06:26;;;;;;;;;;;;;;;-1.26;52.99;98552.97;5094248;27;19926;-60
2024/01/08 08:09:18;;;;;;;;;;;;;;;-1.15;52.95;98562.09;5097226;28;20411;-56
2024/01/08 08:12:06;;;;;;;;;;;;;;;-1.16;53.18;98563.16;5107958;27;19926;-56
2024/01/08 08:14:58;;;;;;;;;;;;;;;-1.22;53.18;98572.84;5102942;27;20191;-58
2024/01/08 08:17:47;;;;;;;;;;;;;;;-1.33;53.49;98568.22;5102824;28;19920;-55
2024/01/08 08:20:36;;;;;;;;;;;;;;;-1.32;53.08;98580.50;5105370;27;19946;-56
2024/01/08 08:23:25;;;;;;;;;;;;;;;-1.66;54.00;98582.59;5110226;27;20032;-56
2024/01/08 08:26:13;;;;;;;;;;;;;;;-1.54;54.10;98581.94;5109410;28;20070;-55
2024/01/08 08:29:03;;;;;;;;;;;;;;;-1.28;53.15;98589.69;5111628;28;20548;-57
2024/01/08 08:31:56;;;;;;;;;;;;;;;-1.11;53.57;98587.31;5102015;27;19946;-55
2024/01/08 08:34:48;;;;;;;;;;;;;;;-1.07;52.50;98589.28;5105540;27;19931;-55
2024/01/08 08:37:43;;;;;;;;;;;;;;;-0.96;51.82;98594.94;5103843;27;19919;-55
2024/01/08 08:40:40;;;;;;;;;;;;;;;-1.32;52.38;98599.97;5105756;28;20008;-55
2024/01/08 08:43:30;;;;;;;;;;;;;;;-1.72;53.36;98607.44;5109775;28;19942;-59
2024/01/08 08:46:18;;;;;;;;;;;;;;;-1.47;53.01;98612.00;5107063;28;19927;-55
2024/01/08 08:49:06;;;;;;;;;;;;;;;-1.70;53.02;98609.91;5101741;27;19943;-56
2024/01/08 08:51:56;;;;;;;;;;;;;;;-1.68;53.29;98613.97;5108799;28;19919;-59
2024/01/08 08:54:46;;;;;;;;;;;;;;;-1.79;53.03;98622.66;5111245;28;20213;-57
2024/01/08 08:57:34;;;;;;;;;;;;;;;-2.20;54.13;98623.88;5106119;28;19941;-64
2024/01/08 09:00:22;;;;;;;;;;;;;;;-2.12;53.91;98625.50;5114150;28;20007;-60
2024/01/08 09:03:10;;;;;;;;;;;;;;;-2.11;53.19;98630.59;5103826;28;19994;-55
2024/01/08 09:05:58;;;;;;;;;;;;;;;-2.21;53.88;98634.75;5104810;28;20284;-56
2024/01/08 09:08:48;;;;;;;;;;;;;;;-2.19;53.93;98638.81;5113549;28;19927;-64
2024/01/08 09:11:37;;;;;;;;;;;;;;;-1.91;53.39;98633.19;5109041;28;20277;-57
2024/01/08 09:14:25;;;;;;;;;;;;;;;-1.93;53.35;98651.19;5117121;28;19927;-59
2024/01/08 09:17:13;;;;;;;;;;;;;;;-1.80;53.02;98647.66;5106197;28;19931;-60
2024/01/08 09:20:02;;;;;;;;;;;;;;;-1.68;52.51;98653.13;5107400;28;20001;-57
2024/01/08 09:22:49;;;;;;;;;;;;;;;-1.94;52.79;98646.91;5111026;27;19928;-56
2024/01/08 09:25:39;;;;;;;;;;;;;;;-1.81;52.33;98650.53;5104888;28;20020;-60
2024/01/08 09:28:27;;;;;;;;;;;;;;;-1.80;51.97;98660.97;5110900;27;19930;-59
2024/01/08 09:31:20;;;;;;;;;;;;;;;-1.79;52.29;98665.28;5111333;28;19985;-60
2024/01/08 09:34:08;;;;;;;;;;;;;;;-1.55;51.75;98666.34;5106960;28;20332;-57
2024/01/08 09:36:56;;;;;;;;;;;;;;;-1.50;51.88;98668.38;5111386;28;19924;-57
2024/01/08 09:39:44;;;;;;;;;;;;;;;-1.77;51.91;98662.38;5104023;28;20113;-55
2024/01/08 09:42:33;;;;;;;;;;;;;;;-1.71;51.45;98672.19;5095210;28;20010;-58
2024/01/08 09:45:22;;;;;;;;;;;;;;;-1.70;52.17;98673.84;5103227;28;19926;-57
2024/01/08 09:48:10;;;;;;;;;;;;;;;-1.63;51.08;98669.28;5107412;28;19928;-56
2024/01/08 09:51:01;;;;;;;;;;;;;;;-1.87;51.62;98670.84;5102469;28;19959;-56
2024/01/08 09:53:49;;;;;;;;;;;;;;;-1.82;51.82;98668.34;5106988;28;19959;-55
2024/01/08 09:56:37;;;;;;;;;;;;;;;-1.71;51.64;98662.34;5096564;28;19920;-56
2024/01/08 09:59:27;;;;;;;;;;;;;;;-1.85;51.30;98666.13;5107616;28;20418;-56
2024/01/08 10:02:16;;;;;;;;;;;;;;;-2.05;51.63;98668.88;5103883;28;20019;-57
2024/01/08 10:05:05;;;;;;;;;;;;;;;-1.60;51.59;98664.34;5098847;28;19920;-56
2024/01/08 10:07:55;;;;;;;;;;;;;;;-1.66;50.83;98667.84;5103821;28;19920;-57
2024/01/08 10:10:43;;;;;;;;;;;;;;;-1.58;50.81;98670.28;5102338;28;20061;-56
2024/01/08 10:13:33;;;;;;;;;;;;;;;-1.39;50.59;98670.34;5105530;28;19920;-56
2024/01/08 10:16:26;;;;;;;;;;;;;;;-1.91;51.23;98670.47;5098699;28;19926;-56
2024/01/08 10:19:27;;;;;;;;;;;;;;;-1.28;49.95;98667.00;5101084;28;19920;-56
2024/01/08 10:22:19;;;;;;;;;;;;;;;-1.14;49.69;98663.19;5097754;28;19923;-56
2024/01/08 10:25:08;;;;;;;;;;;;;;;-1.25;49.73;98666.56;5099462;28;19919;-56
2024/01/08 10:27:56;;;;;;;;;;;;;;;-0.97;49.38;98668.00;5105040;28;19920;-56
2024/01/08 10:30:45;;;;;;;;;;;;;;;-1.04;49.51;98675.25;5104035;28;19931;-55
2024/01/08 10:33:36;;;;;;;;;;;;;;;-1.15;49.60;98669.56;5097820;28;20009;-56
2024/01/08 10:36:24;;;;;;;;;;;;;;;-1.18;50.01;98670.00;5108789;28;19927;-59
2024/01/08 10:39:14;;;;;;;;;;;;;;;-1.32;49.83;98674.63;5107998;28;20011;-57
2024/01/08 10:42:02;;;;;;;;;;;;;;;-0.99;49.63;98675.41;5108060;28;19938;-57
2024/01/08 10:44:51;;;;;;;;;;;;;;;-1.12;49.71;98662.97;5115158;28;20019;-56
2024/01/08 10:47:41;;;;;;;;;;;;;;;-1.27;49.87;98667.84;5103977;28;20396;-55
2024/01/08 10:50:31;;;;;;;;;;;;;;;-1.21;49.87;98666.97;5103077;28;19923;-55
2024/01/08 10:53:21;;;;;;;;;;;;;;;-1.09;49.94;98667.88;5101899;28;20289;-57
2024/01/08 10:56:11;;;;;;;;;;;;;;;-0.98;49.41;98671.69;5101293;28;19931;-55
2024/01/08 10:59:01;;;;;;;;;;;;;;;-0.95;49.58;98669.41;5105991;28;19961;-56
2024/01/08 11:01:49;;;;;;;;;;;;;;;-0.74;49.59;98673.53;5100388;28;20276;-56
2024/01/08 11:04:38;;;;;;;;;;;;;;;-0.51;49.24;98677.44;5104854;28;20593;-57
2024/01/08 11:07:27;;;;;;;;;;;;;;;-0.50;48.74;98677.19;5079564;28;19927;-57
2024/01/08 11:10:18;;;;;;;;;;;;;;;-0.50;48.47;98668.38;5104998;28;19920;-56
2024/01/08 11:13:06;;;;;;;;;;;;;;;-0.34;48.18;98667.78;5104718;28;20284;-55
2024/01/08 11:15:54;;;;;;;;;;;;;;;-0.20;48.21;98669.28;5105665;28;19927;-56
2024/01/08 11:18:42;;;;;;;;;;;;;;;-0.65;48.00;98671.38;5102075;27;19920;-58
2024/01/08 11:21:31;;;;;;;;;;;;;;;-0.49;47.93;98678.81;5103652;27;19924;-56
2024/01/08 11:24:20;;;;;;;;;;;;;;;-0.30;48.75;98669.78;5100070;28;20392;-56
2024/01/08 11:27:08;;;;;;;;;;;;;;;-0.22;47.57;98678.53;5100500;28;19920;-56
2024/01/08 11:29:57;;;;;;;;;;;;;;;-0.36;48.37;98672.53;5101208;28;19920;-56
2024/01/08 11:32:59;;;;;;;;;;;;;;;-0.47;48.32;98662.59;5099359;28;19920;-57
2024/01/08 11:35:48;;;;;;;;;;;;;;;-0.58;48.53;98670.31;5104660;28;19939;-57
2024/01/08 11:38:37;;;;;;;;;;;;;;;-0.37;48.22;98673.59;5105493;28;20012;-56
2024/01/08 11:41:27;;;;;;;;;;;;;;;-0.22;47.94;98665.19;5104839;28;20748;-57
2024/01/08 11:44:15;;;;;;;;;;;;;;;-0.31;47.43;98672.69;5096865;28;19927;-55
2024/01/08 11:47:03;;;;;;;;;;;;;;;-0.43;47.28;98669.13;5099877;28;20383;-55
2024/01/08 11:49:51;;;;;;;;;;;;;;;-0.30;48.04;98668.97;5085341;28;19970;-56
2024/01/08 11:52:40;;;;;;;;;;;;;;;-0.42;48.04;98671.56;5086127;28;19924;-55
2024/01/08 11:55:31;;;;;;;;;;;;;;;-0.62;48.15;98677.13;5105697;28;19920;-56
2024/01/08 11:58:21;;;;;;;;;;;;;;;-0.63;47.81;98675.47;5101681;28;20281;-59
2024/01/08 12:01:15;;;;;;;;;;;;;;;-0.82;48.48;98669.28;5105911;28;19919;-56
2024/01/08 12:04:03;;;;;;;;;;;;;;;-0.73;48.42;98677.84;5103587;28;20035;-56
2024/01/08 12:06:54;;;;;;;;;;;;;;;-0.64;48.22;98675.69;5100508;28;20315;-56
2024/01/08 12:09:42;;;;;;;;;;;;;;;-0.40;48.11;98664.16;5104714;28;19931;-56
2024/01/08 12:12:31;;;;;;;;;;;;;;;-0.32;47.48;98668.38;5103873;28;19920;-55
2024/01/08 12:15:21;;;;;;;;;;;;;;;-0.36;47.98;98669.88;5112041;28;19927;-56
2024/01/08 12:18:09;;;;;;;;;;;;;;;-0.25;47.69;98671.81;5117093;27;19919;-56
2024/01/08 12:20:57;;;;;;;;;;;;;;;0.11;47.49;98670.16;5105807;27;19920;-56
2024/01/08 12:23:45;;;;;;;;;;;;;;;-0.04;46.84;98668.69;5102688;27;19920;-56
2024/01/08 12:26:33;;;;;;;;;;;;;;;0.06;46.48;98672.69;5098843;28;19920;-55
2024/01/08 12:29:22;;;;;;;;;;;;;;;-0.35;47.60;98680.31;5109656;27;19926;-56
2024/01/08 12:32:14;;;;;;;;;;;;;;;-0.12;47.63;98671.63;5108562;27;20057;-57
2024/01/08 12:35:04;;;;;;;;;;;;;;;-0.05;47.21;98676.91;5110054;27;19927;-57
2024/01/08 12:37:54;;;;;;;;;;;;;;;0.15;46.80;98671.31;5102296;28;19927;-56
2024/01/08 12:40:42;;;;;;;;;;;;;;;-0.21;47.47;98675.66;5106256;27;20388;-58
2024/01/08 12:43:33;;;;;;;;;;;;;;;-0.46;48.18;98680.25;5104683;28;20388;-55
2024/01/08 12:46:21;;;;;;;;;;;;;;;-0.46;48.27;98674.91;5100213;27;19985;-57
2024/01/08 12:49:13;;;;;;;;;;;;;;;-0.37;48.42;98679.75;5102716;27;19920;-56
2024/01/08 12:52:01;;;;;;;;;;;;;;;-0.35;48.13;98677.66;5103243;28;19924;-55
2024/01/08 12:54:49;;;;;;;;;;;;;;;-0.12;47.51;98676.16;5107222;28;19931;-55
2024/01/08 12:57:37;;;;;;;;;;;;;;;-0.08;48.63;98677.34;5103903;28;19920;-56
2024/01/08 13:00:27;;;;;;;;;;;;;;;-0.04;47.70;98682.03;5117918;27;19919;-59
2024/01/08 13:03:15;;;;;;;;;;;;;;;0.02;47.80;98676.84;5111356;28;19949;-56
2024/01/08 13:06:07;;;;;;;;;;;;;;;-0.15;47.71;98677.44;5108438;28;19931;-56
2024/01/08 13:08:57;;;;;;;;;;;;;;;-0.04;47.74;98676.69;5080759;28;19978;-55
2024/01/08 13:11:46;;;;;;;;;;;;;;;0.05;47.41;98687.06;5081380;28;20006;-55
2024/01/08 13:14:34;;;;;;;;;;;;;;;0.09;47.26;98682.91;5083118;28;19944;-55
2024/01/08 13:17:24;;;;;;;;;;;;;;;-0.13;47.37;98683.38;5085279;28;19920;-56
2024/01/08 13:20:13;;;;;;;;;;;;;;;-0.34;48.48;98681.94;5087228;28;21253;-59
2024/01/08 13:23:11;;;;;;;;;;;;;;;-0.40;48.67;98690.03;5083096;28;19920;-55
2024/01/08 13:25:59;;;;;;;;;;;;;;;-0.46;49.01;98685.59;5086731;28;20018;-55
2024/01/08 13:28:48;;;;;;;;;;;;;;;-0.31;49.06;98700.22;5085078;28;19939;-55
2024/01/08 13:31:36;;;;;;;;;;;;;;;-0.85;50.38;98699.09;5083106;28;19943;-57
2024/01/08 13:34:24;;;;;;;;;;;;;;;-0.44;49.35;98699.53;5085572;28;19920;-59
2024/01/08 13:37:12;;;;;;;;;;;;;;;-0.37;50.17;98694.94;5078623;28;19927;-55
2024/01/08 13:40:05;;;;;;;;;;;;;;;-0.38;49.68;98693.28;5080663;28;19932;-56
2024/01/08 13:42:54;;;;;;;;;;;;;;;-0.42;49.68;98697.47;5088347;28;19970;-55
2024/01/08 13:45:42;;;;;;;;;;;;;;;-0.50;50.34;98689.72;5083501;28;20240;-56
2024/01/08 13:48:31;;;;;;;;;;;;;;;-0.22;49.16;98681.22;5108099;28;19927;-55
2024/01/08 13:51:20;;;;;;;;;;;;;;;-0.51;49.93;98694.25;5097034;28;20065;-56
2024/01/08 13:54:08;;;;;;;;;;;;;;;-0.33;50.24;98696.13;5102497;28;19924;-55
2024/01/08 13:56:58;;;;;;;;;;;;;;;-0.49;49.90;98696.69;5098729;28;19919;-56
2024/01/08 13:59:46;;;;;;;;;;;;;;;-0.57;50.43;98695.13;5103257;28;19920;-56
2024/01/08 14:02:35;;;;;;;;;;;;;;;-0.33;50.07;98694.25;5102833;28;19920;-55
2024/01/08 14:05:24;;;;;;;;;;;;;;;-0.76;50.73;98702.28;5097368;28;21297;-55
2024/01/08 14:08:13;;;;;;;;;;;;;;;-0.43;49.95;98704.63;5107159;28;19931;-56
2024/01/08 14:11:05;;;;;;;;;;;;;;;-0.67;50.66;98713.50;5108416;28;19920;-55
2024/01/08 14:13:55;;;;;;;;;;;;;;;-0.96;50.94;98718.47;5100382;28;19943;-55
2024/01/08 14:16:43;;;;;;;;;;;;;;;-0.85;51.69;98719.63;5103300;28;19931;-56
2024/01/08 14:19:31;;;;;;;;;;;;;;;-0.99;51.28;98726.06;5102317;28;20025;-56
2024/01/08 14:22:19;;;;;;;;;;;;;;;-1.10;51.47;98732.94;5104732;28;19920;-55
2024/01/08 14:25:08;;;;;;;;;;;;;;;-0.91;51.45;98731.13;5096069;28;19927;-56
2024/01/08 14:27:57;;;;;;;;;;;;;;;-1.24;51.85;98729.50;5095903;28;19920;-56
2024/01/08 14:30:49;;;;;;;;;;;;;;;-1.14;51.68;98735.19;5099852;28;20373;-56
2024/01/08 14:33:37;;;;;;;;;;;;;;;-1.33;52.18;98738.81;5103353;28;20268;-56
2024/01/08 14:36:26;;;;;;;;;;;;;;;-1.03;51.32;98740.88;5093430;28;20604;-56
2024/01/08 14:39:17;;;;;;;;;;;;;;;-1.09;51.68;98746.03;5095842;28;20054;-56
2024/01/08 14:42:05;;;;;;;;;;;;;;;-1.06;52.27;98748.28;5101816;28;20392;-58
2024/01/08 14:44:57;;;;;;;;;;;;;;;-1.25;51.99;98751.88;5107584;28;19962;-56